createdAt,value
2023-03-11T00:01:11.367Z,25.48
2023-03-11T00:03:41.093Z,23.53
2023-03-11T00:06:08.734Z,19.63
2023-03-11T00:08:36.232Z,21.85
2023-03-11T00:11:04.098Z,19.85
2023-03-11T00:13:31.903Z,20.33
2023-03-11T00:15:59.673Z,18.73
2023-03-11T00:18:30.220Z,18.60
2023-03-11T00:21:00.251Z,21.50
2023-03-11T00:23:34.602Z,19.15
2023-03-11T00:26:03.193Z,22.15
2023-03-11T00:28:33.767Z,16.37
2023-03-11T00:31:02.034Z,22.10
2023-03-11T00:33:29.620Z,22.08
2023-03-11T00:35:57.276Z,26.38
2023-03-11T00:38:26.420Z,28.33
2023-03-11T00:40:53.944Z,24.70
2023-03-11T00:43:21.450Z,24.10
2023-03-11T00:45:49.181Z,23.73
2023-03-11T00:48:18.836Z,30.88
2023-03-11T00:50:46.353Z,28.60
2023-03-11T00:53:18.275Z,30.20
2023-03-11T00:55:47.141Z,29.40
2023-03-11T00:58:14.767Z,26.23
2023-03-11T01:00:42.627Z,25.88
2023-03-11T01:03:10.257Z,27.15
2023-03-11T01:05:37.860Z,24.67
2023-03-11T01:08:05.924Z,20.75
2023-03-11T01:10:33.992Z,21.42
2023-03-11T01:13:03.010Z,22.10
2023-03-11T01:15:37.092Z,26.67
2023-03-11T01:18:06.006Z,27.07
2023-03-11T01:20:35.058Z,23.45
2023-03-11T01:23:02.799Z,24.27
2023-03-11T01:25:30.626Z,22.85
2023-03-11T01:27:58.139Z,25.02
2023-03-11T01:30:28.056Z,20.53
2023-03-11T01:32:56.161Z,20.88
2023-03-11T01:35:24.919Z,26.77
2023-03-11T01:37:52.632Z,27.73
2023-03-11T01:40:21.149Z,25.40
2023-03-11T01:42:48.694Z,25.90
2023-03-11T01:45:32.537Z,24.48
2023-03-11T01:48:00.759Z,27.83
2023-03-11T01:50:32.737Z,26.63
2023-03-11T01:53:00.268Z,27.15
2023-03-11T01:55:28.915Z,23.00
2023-03-11T01:57:57.027Z,26.20
2023-03-11T02:00:24.737Z,26.35
2023-03-11T02:02:58.189Z,26.02
2023-03-11T02:05:26.430Z,23.05
2023-03-11T02:07:55.113Z,21.07
2023-03-11T02:10:22.705Z,21.40
2023-03-11T02:12:51.840Z,21.42
2023-03-11T02:15:19.737Z,21.98
2023-03-11T02:17:48.310Z,24.83
2023-03-11T02:20:21.560Z,20.47
2023-03-11T02:22:49.539Z,23.83
2023-03-11T02:25:22.621Z,24.90
2023-03-11T02:27:58.608Z,23.30
2023-03-11T02:30:27.371Z,21.05
2023-03-11T02:32:55.966Z,20.27
2023-03-11T02:35:23.688Z,21.10
2023-03-11T02:37:52.647Z,18.35
2023-03-11T02:40:36.136Z,19.75
2023-03-11T02:43:06.619Z,21.27
2023-03-11T02:45:34.401Z,24.90
2023-03-11T02:48:04.413Z,22.77
2023-03-11T02:50:34.485Z,20.30
2023-03-11T02:53:02.047Z,24.20
2023-03-11T02:55:29.635Z,23.50
2023-03-11T02:57:57.281Z,22.60
2023-03-11T03:00:32.457Z,24.52
2023-03-11T03:03:00.173Z,20.70
2023-03-11T03:05:27.738Z,20.63
2023-03-11T03:08:00.142Z,19.45
2023-03-11T03:10:28.061Z,20.87
2023-03-11T03:12:55.684Z,18.25
2023-03-11T03:15:23.254Z,22.98
2023-03-11T03:17:52.368Z,20.63
2023-03-11T03:20:22.579Z,22.73
2023-03-11T03:22:51.342Z,21.63
2023-03-11T03:25:19.223Z,20.55
2023-03-11T03:27:47.477Z,20.63
2023-03-11T03:30:15.149Z,18.45
2023-03-11T03:32:42.994Z,18.77
2023-03-11T03:35:16.777Z,18.73
2023-03-11T03:37:44.872Z,19.42
2023-03-11T03:40:12.931Z,13.70
2023-03-11T03:42:40.480Z,14.50
2023-03-11T03:45:09.333Z,16.58
2023-03-11T03:47:37.259Z,18.70
2023-03-11T03:50:05.295Z,17.00
2023-03-11T03:52:35.643Z,13.70
2023-03-11T03:55:03.279Z,13.48
2023-03-11T03:57:30.808Z,13.40
2023-03-11T04:00:02.479Z,15.10
2023-03-11T04:02:30.055Z,16.40
2023-03-11T04:04:57.941Z,13.30
2023-03-11T04:07:25.702Z,10.77
2023-03-11T04:09:54.608Z,14.23
2023-03-11T04:12:22.137Z,16.03
2023-03-11T04:14:49.820Z,13.07
2023-03-11T04:17:21.757Z,12.13
2023-03-11T04:19:49.384Z,16.00
2023-03-11T04:22:17.053Z,14.30
2023-03-11T04:24:44.835Z,13.07
2023-03-11T04:27:13.673Z,10.23
2023-03-11T04:29:41.519Z,11.90
2023-03-11T04:32:09.079Z,12.38
2023-03-11T04:34:36.579Z,14.43
2023-03-11T04:37:04.228Z,13.47
2023-03-11T04:39:32.574Z,11.90
2023-03-11T04:42:01.654Z,14.00
2023-03-11T04:44:32.862Z,11.63
2023-03-11T04:47:00.427Z,14.88
2023-03-11T04:49:27.944Z,10.67
2023-03-11T04:51:55.667Z,12.27
2023-03-11T04:54:23.160Z,9.63
2023-03-11T04:56:50.754Z,13.13
2023-03-11T04:59:18.411Z,10.63
2023-03-11T05:01:47.472Z,10.47
2023-03-11T05:04:15.141Z,8.23
2023-03-11T05:06:42.831Z,11.10
2023-03-11T05:09:10.394Z,12.40
2023-03-11T05:11:37.952Z,12.15
2023-03-11T05:14:06.250Z,10.33
2023-03-11T05:16:33.771Z,9.32
2023-03-11T05:19:22.753Z,11.10
2023-03-11T05:21:50.341Z,9.85
2023-03-11T05:24:17.801Z,9.23
2023-03-11T05:26:48.157Z,11.23
2023-03-11T05:29:16.137Z,10.48
2023-03-11T05:31:43.695Z,11.23
2023-03-11T05:34:12.664Z,11.82
2023-03-11T05:36:40.317Z,9.65
2023-03-11T05:39:08.167Z,10.87
2023-03-11T05:41:36.742Z,9.98
2023-03-11T05:44:04.420Z,9.38
2023-03-11T05:46:32.258Z,10.77
2023-03-11T05:49:00.282Z,8.60
2023-03-11T05:51:29.520Z,9.17
2023-03-11T05:53:57.164Z,9.90
2023-03-11T05:56:24.809Z,10.73
2023-03-11T05:58:52.315Z,10.82
2023-03-11T06:01:20.679Z,12.98
2023-03-11T06:03:48.424Z,10.00
2023-03-11T06:06:17.676Z,9.02
2023-03-11T06:08:49.942Z,11.75
2023-03-11T06:11:18.179Z,11.25
2023-03-11T06:13:45.761Z,10.18
2023-03-11T06:16:13.393Z,9.93
2023-03-11T06:18:41.062Z,11.48
2023-03-11T06:21:09.312Z,12.57
2023-03-11T06:23:36.913Z,8.80
2023-03-11T06:26:06.568Z,9.63
2023-03-11T06:28:34.967Z,7.90
2023-03-11T06:31:17.381Z,10.48
2023-03-11T06:33:45.243Z,8.85
2023-03-11T06:36:13.978Z,7.82
2023-03-11T06:38:41.793Z,8.30
2023-03-11T06:41:11.330Z,9.07
2023-03-11T06:43:38.825Z,12.77
2023-03-11T06:46:09.793Z,9.35
2023-03-11T06:48:37.527Z,7.53
2023-03-11T06:51:05.577Z,7.93
2023-03-11T06:53:33.507Z,7.30
2023-03-11T06:56:01.861Z,10.40
2023-03-11T06:58:30.733Z,8.80
2023-03-11T07:01:01.460Z,10.55
2023-03-11T07:03:29.387Z,9.13
2023-03-11T07:05:56.941Z,8.63
2023-03-11T07:08:24.554Z,8.23
2023-03-11T07:11:00.964Z,8.60
2023-03-11T07:13:28.866Z,7.72
2023-03-11T07:16:05.067Z,6.63
2023-03-11T07:18:34.410Z,12.83
2023-03-11T07:21:02.340Z,9.45
2023-03-11T07:23:29.992Z,13.95
2023-03-11T07:25:57.646Z,10.93
2023-03-11T07:28:25.688Z,9.50
2023-03-11T07:30:54.002Z,10.00
2023-03-11T07:33:24.191Z,10.07
2023-03-11T07:35:51.910Z,6.18
2023-03-11T07:38:20.363Z,7.18
2023-03-11T07:40:58.519Z,8.20
2023-03-11T07:43:26.141Z,9.20
2023-03-11T07:45:55.188Z,7.70
2023-03-11T07:48:24.130Z,6.75
2023-03-11T07:50:51.748Z,10.18
2023-03-11T07:53:19.284Z,7.18
2023-03-11T07:55:50.041Z,8.83
2023-03-11T07:58:17.577Z,9.52
2023-03-11T08:00:47.646Z,8.38
2023-03-11T08:03:15.266Z,5.78
2023-03-11T08:05:44.283Z,6.97
2023-03-11T08:08:11.863Z,7.57
2023-03-11T08:10:39.589Z,7.13
2023-03-11T08:13:07.759Z,6.93
2023-03-11T08:15:36.102Z,9.88
2023-03-11T08:18:03.836Z,7.07
2023-03-11T08:20:31.419Z,8.40
2023-03-11T08:23:00.360Z,9.05
2023-03-11T08:25:28.167Z,9.48
2023-03-11T08:27:59.178Z,8.63
2023-03-11T08:30:26.724Z,9.75
2023-03-11T08:32:54.399Z,8.80
2023-03-11T08:35:22.269Z,6.38
2023-03-11T08:37:50.146Z,6.30
2023-03-11T08:40:19.450Z,8.43
2023-03-11T08:42:47.062Z,6.38
2023-03-11T08:45:14.585Z,11.77
2023-03-11T08:47:42.212Z,7.35
2023-03-11T08:50:12.730Z,9.63
2023-03-11T08:52:40.221Z,7.50
2023-03-11T08:55:11.277Z,8.32
2023-03-11T08:57:40.310Z,11.37
2023-03-11T09:00:12.108Z,10.25
2023-03-11T09:05:26.580Z,9.70
2023-03-11T09:07:54.462Z,10.35
2023-03-11T09:10:21.989Z,4.47
2023-03-11T09:12:50.980Z,6.47
2023-03-11T09:15:26.259Z,8.88
2023-03-11T09:17:54.434Z,12.50
2023-03-11T09:20:22.104Z,6.45
2023-03-11T09:22:49.846Z,6.17
2023-03-11T09:25:18.260Z,7.53
2023-03-11T09:27:45.852Z,7.28
2023-03-11T09:30:15.057Z,8.73
2023-03-11T09:32:42.700Z,9.32
2023-03-11T09:35:10.512Z,6.03
2023-03-11T09:37:44.096Z,8.00
2023-03-11T09:40:13.933Z,9.88
2023-03-11T09:42:46.501Z,6.30
2023-03-11T09:45:17.560Z,13.52
2023-03-11T09:47:52.429Z,7.97
2023-03-11T09:50:25.000Z,8.85
2023-03-11T09:52:57.245Z,8.57
2023-03-11T09:55:37.290Z,8.98
2023-03-11T09:58:10.076Z,7.03
2023-03-11T10:00:39.483Z,13.60
2023-03-11T10:03:08.937Z,7.03
2023-03-11T10:05:37.316Z,6.85
2023-03-11T10:08:10.158Z,7.13
2023-03-11T10:10:43.708Z,8.32
2023-03-11T10:13:14.425Z,6.47
2023-03-11T10:15:48.580Z,9.07
2023-03-11T10:18:21.343Z,10.15
2023-03-11T10:20:53.155Z,9.23
2023-03-11T10:23:25.604Z,8.15
2023-03-11T10:25:58.179Z,7.87
2023-03-11T10:28:28.680Z,7.20
2023-03-11T10:30:59.365Z,10.60
2023-03-11T10:33:31.430Z,12.18
2023-03-11T10:36:01.677Z,5.93
2023-03-11T10:38:32.313Z,8.73
2023-03-11T10:41:05.419Z,9.57
2023-03-11T10:43:36.027Z,8.40
2023-03-11T10:46:07.621Z,8.35
2023-03-11T10:48:35.492Z,6.82
2023-03-11T10:51:03.792Z,6.70
2023-03-11T10:53:32.120Z,7.68
2023-03-11T10:56:00.542Z,10.30
2023-03-11T10:58:29.232Z,6.93
2023-03-11T11:01:05.688Z,7.15
2023-03-11T11:03:33.854Z,8.80
2023-03-11T11:06:02.443Z,11.38
2023-03-11T11:08:30.299Z,6.50
2023-03-11T11:10:59.169Z,6.38
2023-03-11T11:13:27.158Z,5.97
2023-03-11T11:15:59.099Z,7.20
2023-03-11T11:18:30.255Z,10.93
2023-03-11T11:21:02.132Z,8.10
2023-03-11T11:23:34.316Z,8.48
2023-03-11T11:26:04.725Z,6.45
2023-03-11T11:28:33.270Z,6.40
2023-03-11T11:31:01.947Z,9.05
2023-03-11T11:33:31.759Z,9.05
2023-03-11T11:36:00.944Z,6.60
2023-03-11T11:38:29.851Z,8.80
2023-03-11T11:40:59.204Z,8.20
2023-03-11T11:43:32.642Z,5.82
2023-03-11T11:46:03.672Z,4.25
2023-03-11T11:48:35.319Z,8.27
2023-03-11T11:51:04.463Z,6.82
2023-03-11T11:53:36.070Z,10.68
2023-03-11T11:56:03.594Z,11.10
2023-03-11T12:01:20.875Z,10.20
2023-03-11T12:04:06.945Z,8.20
2023-03-11T12:06:40.969Z,6.65
2023-03-11T12:09:15.646Z,5.90
2023-03-11T12:11:45.911Z,8.63
2023-03-11T12:14:18.108Z,6.17
2023-03-11T12:16:56.369Z,7.43
2023-03-11T12:19:36.280Z,7.72
2023-03-11T12:22:20.671Z,4.28
2023-03-11T12:24:57.991Z,5.75
2023-03-11T12:27:27.741Z,8.57
2023-03-11T12:29:56.792Z,7.53
2023-03-11T12:32:26.122Z,5.30
2023-03-11T12:34:54.037Z,9.05
2023-03-11T12:37:24.393Z,6.70
2023-03-11T12:39:52.568Z,6.27
2023-03-11T12:42:22.049Z,4.22
2023-03-11T12:44:50.439Z,6.00
2023-03-11T12:47:25.732Z,7.68
2023-03-11T12:49:54.982Z,5.78
2023-03-11T12:52:26.598Z,4.37
2023-03-11T12:55:12.989Z,3.63
2023-03-11T12:57:49.482Z,5.10
2023-03-11T13:00:23.096Z,6.80
2023-03-11T13:03:16.833Z,5.82
2023-03-11T13:05:51.850Z,7.20
2023-03-11T13:08:22.759Z,4.15
2023-03-11T13:10:50.980Z,7.88
2023-03-11T13:13:35.788Z,7.35
2023-03-11T13:16:18.218Z,4.60
2023-03-11T13:18:46.937Z,6.23
2023-03-11T13:21:32.422Z,4.57
2023-03-11T13:24:15.551Z,6.65
2023-03-11T13:26:45.110Z,3.92
2023-03-11T13:29:22.273Z,4.38
2023-03-11T13:31:56.096Z,4.30
2023-03-11T13:34:28.068Z,5.13
2023-03-11T13:37:01.632Z,6.35
2023-03-11T13:39:33.141Z,6.57
2023-03-11T13:42:04.620Z,8.68
2023-03-11T13:44:34.713Z,7.00
2023-03-11T13:47:12.503Z,6.78
2023-03-11T13:49:43.288Z,7.30
2023-03-11T13:52:14.567Z,5.15
2023-03-11T13:54:47.909Z,6.37
2023-03-11T13:57:25.998Z,4.82
2023-03-11T13:59:54.188Z,4.20
2023-03-11T14:02:24.029Z,4.68
2023-03-11T14:04:52.436Z,4.22
2023-03-11T14:07:25.564Z,6.53
2023-03-11T14:09:53.124Z,5.55
2023-03-11T14:12:22.220Z,6.10
2023-03-11T14:14:52.814Z,5.22
2023-03-11T14:17:20.725Z,4.55
2023-03-11T14:20:07.434Z,5.27
2023-03-11T14:22:35.348Z,4.63
2023-03-11T14:25:05.789Z,5.70
2023-03-11T14:27:35.002Z,9.48
2023-03-11T14:30:02.619Z,6.13
2023-03-11T14:32:32.189Z,6.80
2023-03-11T14:35:00.285Z,3.88
2023-03-11T14:37:32.018Z,5.07
2023-03-11T14:39:59.696Z,3.47
2023-03-11T14:42:34.896Z,3.83
2023-03-11T14:45:09.601Z,5.15
2023-03-11T14:47:38.760Z,4.50
2023-03-11T14:50:08.281Z,4.20
2023-03-11T14:52:38.239Z,7.95
2023-03-11T14:55:08.563Z,5.20
2023-03-11T14:57:38.486Z,7.65
2023-03-11T15:00:17.004Z,6.78
2023-03-11T15:02:46.584Z,6.60
2023-03-11T15:05:17.579Z,5.28
2023-03-11T15:07:45.840Z,5.88
2023-03-11T15:10:13.979Z,3.03
2023-03-11T15:12:43.276Z,5.82
2023-03-11T15:15:26.925Z,3.50
2023-03-11T15:17:55.051Z,5.70
2023-03-11T15:20:29.333Z,6.67
2023-03-11T15:23:01.522Z,5.00
2023-03-11T15:25:29.680Z,5.20
2023-03-11T15:28:34.041Z,7.13
2023-03-11T15:31:31.206Z,4.32
2023-03-11T15:34:25.955Z,6.43
2023-03-11T15:37:04.677Z,5.53
2023-03-11T15:39:44.098Z,6.75
2023-03-11T15:42:15.391Z,6.68
2023-03-11T15:44:43.685Z,8.68
2023-03-11T15:47:15.423Z,7.13
2023-03-11T15:49:43.398Z,9.88
2023-03-11T15:52:11.388Z,5.53
2023-03-11T15:54:39.465Z,7.25
2023-03-11T15:57:08.724Z,8.48
2023-03-11T15:59:37.364Z,7.53
2023-03-11T16:02:05.204Z,9.25
2023-03-11T16:04:34.330Z,7.97
2023-03-11T16:07:08.400Z,9.73
2023-03-11T16:09:41.466Z,8.38
2023-03-11T16:12:15.385Z,9.37
2023-03-11T16:14:43.494Z,8.10
2023-03-11T16:17:14.470Z,8.98
2023-03-11T16:19:43.790Z,8.32
2023-03-11T16:22:15.473Z,9.65
2023-03-11T16:24:43.667Z,7.77
2023-03-11T16:27:13.438Z,10.88
2023-03-11T16:29:41.869Z,9.98
2023-03-11T16:32:10.626Z,10.55
2023-03-11T16:34:39.777Z,9.48
2023-03-11T16:37:09.328Z,12.87
2023-03-11T16:39:37.673Z,8.60
2023-03-11T16:42:06.124Z,9.73
2023-03-11T16:44:34.789Z,12.70
2023-03-11T16:47:02.514Z,11.68
2023-03-11T16:49:35.300Z,9.83
2023-03-11T16:52:02.919Z,9.38
2023-03-11T16:54:35.715Z,11.73
2023-03-11T16:57:03.993Z,13.25
2023-03-11T16:59:31.523Z,10.95
2023-03-11T17:01:59.459Z,13.10
2023-03-11T17:04:28.206Z,10.38
2023-03-11T17:06:55.853Z,14.77
2023-03-11T17:09:23.577Z,17.08
2023-03-11T17:11:53.736Z,12.77
2023-03-11T17:14:21.422Z,12.43
2023-03-11T17:16:48.937Z,12.05
2023-03-11T17:19:16.937Z,13.98
2023-03-11T17:21:44.617Z,13.40
2023-03-11T17:24:12.453Z,15.55
2023-03-11T17:26:40.246Z,12.90
2023-03-11T17:29:11.315Z,12.65
2023-03-11T17:31:38.898Z,14.90
2023-03-11T17:34:06.573Z,15.27
2023-03-11T17:36:34.097Z,16.92
2023-03-11T17:39:01.689Z,13.53
2023-03-11T17:41:29.457Z,14.20
2023-03-11T17:43:56.977Z,13.55
2023-03-11T17:46:25.884Z,14.77
2023-03-11T17:48:53.847Z,15.70
2023-03-11T17:51:22.505Z,18.07
2023-03-11T17:53:50.329Z,16.90
2023-03-11T17:56:19.026Z,16.98
2023-03-11T17:58:46.603Z,17.38
2023-03-11T18:01:15.599Z,17.55
2023-03-11T18:03:44.823Z,18.07
2023-03-11T18:06:12.901Z,15.98
2023-03-11T18:08:40.480Z,20.63
2023-03-11T18:11:09.444Z,15.85
2023-03-11T18:13:37.187Z,16.90
2023-03-11T18:16:05.413Z,17.33
2023-03-11T18:18:34.512Z,19.75
2023-03-11T18:21:06.192Z,17.63
2023-03-11T18:23:34.105Z,20.10
2023-03-11T18:26:02.193Z,16.15
2023-03-11T18:28:30.001Z,19.07
2023-03-11T18:30:57.626Z,18.17
2023-03-11T18:33:25.802Z,18.93
2023-03-11T18:35:53.385Z,17.35
2023-03-11T18:38:22.331Z,16.08
2023-03-11T18:40:57.283Z,18.73
2023-03-11T18:43:24.878Z,19.83
2023-03-11T18:45:52.405Z,19.40
2023-03-11T18:48:20.125Z,20.00
2023-03-11T18:50:51.682Z,19.05
2023-03-11T18:53:21.510Z,23.90
2023-03-11T18:55:50.384Z,20.50
2023-03-11T18:58:17.843Z,19.47
2023-03-11T19:00:45.790Z,18.83
2023-03-11T19:03:13.530Z,16.90
2023-03-11T19:05:41.044Z,18.02
2023-03-11T19:10:58.258Z,18.40
2023-03-11T19:13:37.184Z,19.92
2023-03-11T19:16:09.793Z,15.98
2023-03-11T19:18:37.888Z,16.77
2023-03-11T19:21:07.064Z,17.25
2023-03-11T19:23:35.948Z,16.60
2023-03-11T19:26:06.074Z,17.92
2023-03-11T19:28:33.619Z,16.95
2023-03-11T19:31:01.459Z,16.77
2023-03-11T19:33:29.196Z,18.00
2023-03-11T19:35:58.849Z,16.98
2023-03-11T19:38:27.137Z,18.08
2023-03-11T19:40:55.134Z,19.20
2023-03-11T19:43:24.608Z,17.13
2023-03-11T19:45:52.309Z,16.20
2023-03-11T19:48:20.511Z,20.25
2023-03-11T19:50:48.470Z,18.17
2023-03-11T19:53:16.504Z,15.75
2023-03-11T19:55:44.937Z,19.80
2023-03-11T19:58:12.528Z,19.23
2023-03-11T20:00:41.905Z,20.88
2023-03-11T20:03:09.936Z,18.75
2023-03-11T20:05:38.254Z,18.58
2023-03-11T20:08:06.958Z,16.23
2023-03-11T20:10:34.881Z,15.33
2023-03-11T20:13:04.247Z,14.98
2023-03-11T20:15:43.240Z,14.95
2023-03-11T20:18:12.193Z,15.15
2023-03-11T20:20:43.105Z,15.57
2023-03-11T20:23:11.364Z,15.47
2023-03-11T20:25:39.436Z,15.90
2023-03-11T20:28:07.545Z,14.63
2023-03-11T20:30:35.295Z,13.95
2023-03-11T20:33:03.039Z,13.98
2023-03-11T20:35:32.089Z,12.93
2023-03-11T20:38:00.217Z,14.02
2023-03-11T20:40:28.044Z,11.88
2023-03-11T20:42:58.562Z,11.13
2023-03-11T20:45:27.024Z,11.15
2023-03-11T20:47:55.744Z,10.67
2023-03-11T20:50:23.402Z,10.57
2023-03-11T20:52:54.138Z,11.63
2023-03-11T20:55:22.745Z,13.90
2023-03-11T20:57:50.386Z,10.93
2023-03-11T21:00:18.410Z,12.68
2023-03-11T21:02:46.135Z,12.80
2023-03-11T21:05:13.853Z,11.65
2023-03-11T21:07:41.458Z,14.38
2023-03-11T21:10:11.908Z,14.63
2023-03-11T21:12:39.489Z,13.73
2023-03-11T21:15:08.805Z,15.27
2023-03-11T21:17:36.600Z,14.65
2023-03-11T21:20:05.747Z,14.13
2023-03-11T21:22:33.771Z,16.90
2023-03-11T21:25:01.424Z,17.67
2023-03-11T21:27:30.594Z,15.40
2023-03-11T21:29:59.097Z,15.05
2023-03-11T21:32:27.869Z,17.00
2023-03-11T21:37:42.289Z,16.73
2023-03-11T21:40:10.763Z,16.15
2023-03-11T21:42:39.634Z,16.70
2023-03-11T21:45:07.974Z,15.95
2023-03-11T21:47:36.764Z,15.37
2023-03-11T21:50:04.779Z,16.65
2023-03-11T21:52:32.674Z,15.13
2023-03-11T21:55:00.313Z,17.42
2023-03-11T21:57:27.900Z,17.80
2023-03-11T21:59:57.080Z,15.43
2023-03-11T22:02:24.659Z,14.90
2023-03-11T22:04:52.580Z,13.90
2023-03-11T22:07:20.903Z,14.55
2023-03-11T22:09:48.641Z,13.05
2023-03-11T22:12:20.473Z,13.13
2023-03-11T22:14:48.390Z,12.07
2023-03-11T22:17:17.517Z,13.95
2023-03-11T22:19:45.215Z,12.27
2023-03-11T22:22:13.435Z,11.65
2023-03-11T22:24:42.991Z,16.23
2023-03-11T22:27:10.548Z,12.00
2023-03-11T22:29:39.197Z,13.60
2023-03-11T22:32:06.853Z,14.85
2023-03-11T22:34:35.781Z,16.77
2023-03-11T22:37:03.618Z,13.33
2023-03-11T22:39:31.157Z,15.70
2023-03-11T22:41:58.678Z,17.42
2023-03-11T22:44:26.323Z,16.50
2023-03-11T22:46:53.855Z,14.90
2023-03-11T22:49:21.385Z,13.53
2023-03-11T22:51:50.405Z,13.10
2023-03-11T22:54:18.144Z,14.80
2023-03-11T22:56:45.701Z,14.23
2023-03-11T22:59:13.407Z,15.90
2023-03-11T23:01:40.938Z,17.40
2023-03-11T23:04:16.745Z,12.88
2023-03-11T23:06:44.352Z,12.75
2023-03-11T23:09:13.248Z,15.82
2023-03-11T23:11:40.881Z,13.57
2023-03-11T23:14:09.033Z,14.23
2023-03-11T23:16:36.547Z,14.25
2023-03-11T23:19:08.070Z,13.38
2023-03-11T23:21:36.156Z,14.02
2023-03-11T23:24:06.162Z,17.33
2023-03-11T23:26:35.688Z,14.37
2023-03-11T23:29:03.789Z,17.02
2023-03-11T23:31:31.798Z,16.05
2023-03-11T23:33:59.586Z,17.10
2023-03-11T23:36:30.789Z,16.17
2023-03-11T23:38:58.695Z,18.33
2023-03-11T23:41:26.525Z,18.20
2023-03-11T23:43:55.740Z,21.42
2023-03-11T23:46:23.405Z,15.90
2023-03-11T23:48:50.954Z,22.60
2023-03-11T23:51:18.578Z,25.07
2023-03-11T23:53:46.429Z,26.92
2023-03-11T23:56:15.134Z,27.85
2023-03-11T23:58:42.719Z,34.17
